sensor_id;sensor_type;location;lat;lon;timestamp;P1;durP1;ratioP1;P2;durP2;ratioP2
32292;SDS011;43233;48.608;8.838;2022-07-19T00:00:30;4.90;;;4.00;;
32292;SDS011;43233;48.608;8.838;2022-07-19T00:02:56;4.63;;;4.13;;
32292;SDS011;43233;48.608;8.838;2022-07-19T00:05:21;5.80;;;4.40;;
32292;SDS011;43233;48.608;8.838;2022-07-19T00:07:47;5.60;;;4.00;;
32292;SDS011;43233;48.608;8.838;2022-07-19T00:10:14;3.60;;;3.30;;
32292;SDS011;43233;48.608;8.838;2022-07-19T00:12:41;10.00;;;4.30;;
32292;SDS011;43233;48.608;8.838;2022-07-19T00:15:08;5.40;;;4.40;;
32292;SDS011;43233;48.608;8.838;2022-07-19T00:17:38;7.00;;;4.80;;
32292;SDS011;43233;48.608;8.838;2022-07-19T00:20:05;5.70;;;4.70;;
32292;SDS011;43233;48.608;8.838;2022-07-19T00:22:31;6.33;;;4.70;;
32292;SDS011;43233;48.608;8.838;2022-07-19T00:24:57;6.73;;;4.70;;
32292;SDS011;43233;48.608;8.838;2022-07-19T00:27:22;5.27;;;4.80;;
32292;SDS011;43233;48.608;8.838;2022-07-19T00:29:48;6.13;;;4.47;;
32292;SDS011;43233;48.608;8.838;2022-07-19T00:32:14;6.27;;;4.40;;
32292;SDS011;43233;48.608;8.838;2022-07-19T00:34:39;6.47;;;3.77;;
32292;SDS011;43233;48.608;8.838;2022-07-19T00:37:05;3.93;;;3.63;;
32292;SDS011;43233;48.608;8.838;2022-07-19T00:39:30;6.70;;;3.70;;
32292;SDS011;43233;48.608;8.838;2022-07-19T00:41:56;4.13;;;3.83;;
32292;SDS011;43233;48.608;8.838;2022-07-19T00:44:22;3.97;;;3.47;;
32292;SDS011;43233;48.608;8.838;2022-07-19T00:46:48;9.70;;;4.40;;
32292;SDS011;43233;48.608;8.838;2022-07-19T00:49:14;4.30;;;3.90;;
32292;SDS011;43233;48.608;8.838;2022-07-19T00:51:40;4.87;;;3.30;;
32292;SDS011;43233;48.608;8.838;2022-07-19T00:54:08;6.53;;;4.83;;
32292;SDS011;43233;48.608;8.838;2022-07-19T00:56:35;4.70;;;4.30;;
32292;SDS011;43233;48.608;8.838;2022-07-19T00:59:03;5.73;;;5.13;;
32292;SDS011;43233;48.608;8.838;2022-07-19T01:01:30;7.83;;;5.90;;
32292;SDS011;43233;48.608;8.838;2022-07-19T01:03:56;6.80;;;5.57;;
32292;SDS011;43233;48.608;8.838;2022-07-19T01:06:23;7.90;;;4.70;;
32292;SDS011;43233;48.608;8.838;2022-07-19T01:08:49;5.50;;;4.80;;
32292;SDS011;43233;48.608;8.838;2022-07-19T01:11:14;7.87;;;4.90;;
32292;SDS011;43233;48.608;8.838;2022-07-19T01:13:40;6.43;;;4.80;;
32292;SDS011;43233;48.608;8.838;2022-07-19T01:16:06;4.47;;;3.53;;
32292;SDS011;43233;48.608;8.838;2022-07-19T01:18:32;8.00;;;4.10;;
32292;SDS011;43233;48.608;8.838;2022-07-19T01:20:58;9.77;;;5.87;;
32292;SDS011;43233;48.608;8.838;2022-07-19T01:23:25;5.93;;;5.27;;
32292;SDS011;43233;48.608;8.838;2022-07-19T01:25:51;6.50;;;4.90;;
32292;SDS011;43233;48.608;8.838;2022-07-19T01:28:17;6.83;;;4.90;;
32292;SDS011;43233;48.608;8.838;2022-07-19T01:30:42;8.47;;;5.40;;
32292;SDS011;43233;48.608;8.838;2022-07-19T01:33:08;6.13;;;5.20;;
32292;SDS011;43233;48.608;8.838;2022-07-19T01:35:34;5.60;;;4.73;;
32292;SDS011;43233;48.608;8.838;2022-07-19T01:37:59;7.87;;;4.43;;
32292;SDS011;43233;48.608;8.838;2022-07-19T01:40:25;5.50;;;4.30;;
32292;SDS011;43233;48.608;8.838;2022-07-19T01:42:52;4.93;;;4.50;;
32292;SDS011;43233;48.608;8.838;2022-07-19T01:45:18;4.37;;;3.97;;
32292;SDS011;43233;48.608;8.838;2022-07-19T01:47:44;6.17;;;4.50;;
32292;SDS011;43233;48.608;8.838;2022-07-19T01:50:10;9.37;;;4.33;;
32292;SDS011;43233;48.608;8.838;2022-07-19T01:52:37;7.20;;;4.50;;
32292;SDS011;43233;48.608;8.838;2022-07-19T01:55:04;6.03;;;4.47;;
32292;SDS011;43233;48.608;8.838;2022-07-19T01:57:30;7.27;;;5.00;;
32292;SDS011;43233;48.608;8.838;2022-07-19T01:59:56;6.60;;;4.47;;
32292;SDS011;43233;48.608;8.838;2022-07-19T02:02:22;6.30;;;4.80;;
32292;SDS011;43233;48.608;8.838;2022-07-19T02:04:47;5.30;;;4.63;;
32292;SDS011;43233;48.608;8.838;2022-07-19T02:07:13;5.20;;;4.57;;
32292;SDS011;43233;48.608;8.838;2022-07-19T02:09:39;5.87;;;3.97;;
32292;SDS011;43233;48.608;8.838;2022-07-19T02:12:05;5.80;;;4.97;;
32292;SDS011;43233;48.608;8.838;2022-07-19T02:14:30;6.60;;;4.17;;
32292;SDS011;43233;48.608;8.838;2022-07-19T02:16:56;5.27;;;4.10;;
32292;SDS011;43233;48.608;8.838;2022-07-19T02:19:22;5.80;;;4.27;;
32292;SDS011;43233;48.608;8.838;2022-07-19T02:21:47;13.40;;;4.70;;
32292;SDS011;43233;48.608;8.838;2022-07-19T02:24:13;4.83;;;3.93;;
32292;SDS011;43233;48.608;8.838;2022-07-19T02:26:39;4.47;;;4.17;;
32292;SDS011;43233;48.608;8.838;2022-07-19T02:29:06;4.90;;;4.07;;
32292;SDS011;43233;48.608;8.838;2022-07-19T02:31:32;6.80;;;4.17;;
32292;SDS011;43233;48.608;8.838;2022-07-19T02:33:58;6.50;;;4.00;;
32292;SDS011;43233;48.608;8.838;2022-07-19T02:36:24;4.80;;;3.77;;
32292;SDS011;43233;48.608;8.838;2022-07-19T02:38:49;6.57;;;4.47;;
32292;SDS011;43233;48.608;8.838;2022-07-19T02:41:15;5.07;;;4.00;;
32292;SDS011;43233;48.608;8.838;2022-07-19T02:43:41;4.23;;;3.67;;
32292;SDS011;43233;48.608;8.838;2022-07-19T02:46:07;4.73;;;4.33;;
32292;SDS011;43233;48.608;8.838;2022-07-19T02:48:33;10.50;;;4.03;;
32292;SDS011;43233;48.608;8.838;2022-07-19T02:50:59;4.33;;;3.93;;
32292;SDS011;43233;48.608;8.838;2022-07-19T02:53:24;3.87;;;3.57;;
32292;SDS011;43233;48.608;8.838;2022-07-19T02:55:50;4.17;;;3.77;;
32292;SDS011;43233;48.608;8.838;2022-07-19T02:58:15;5.70;;;4.20;;
32292;SDS011;43233;48.608;8.838;2022-07-19T03:00:41;4.43;;;4.03;;
32292;SDS011;43233;48.608;8.838;2022-07-19T03:03:07;4.30;;;3.30;;
32292;SDS011;43233;48.608;8.838;2022-07-19T03:05:51;12.60;;;3.77;;
32292;SDS011;43233;48.608;8.838;2022-07-19T03:08:17;5.30;;;4.30;;
32292;SDS011;43233;48.608;8.838;2022-07-19T03:10:43;4.90;;;3.87;;
32292;SDS011;43233;48.608;8.838;2022-07-19T03:13:08;4.37;;;3.43;;
32292;SDS011;43233;48.608;8.838;2022-07-19T03:15:35;5.57;;;3.60;;
32292;SDS011;43233;48.608;8.838;2022-07-19T03:18:00;5.30;;;3.50;;
32292;SDS011;43233;48.608;8.838;2022-07-19T03:20:26;3.63;;;3.33;;
32292;SDS011;43233;48.608;8.838;2022-07-19T03:22:52;4.00;;;3.17;;
32292;SDS011;43233;48.608;8.838;2022-07-19T03:25:18;3.57;;;3.23;;
32292;SDS011;43233;48.608;8.838;2022-07-19T03:27:43;5.00;;;3.00;;
32292;SDS011;43233;48.608;8.838;2022-07-19T03:30:09;8.57;;;3.50;;
32292;SDS011;43233;48.608;8.838;2022-07-19T03:32:34;4.13;;;3.70;;
32292;SDS011;43233;48.608;8.838;2022-07-19T03:35:00;4.63;;;3.33;;
32292;SDS011;43233;48.608;8.838;2022-07-19T03:37:26;4.40;;;3.77;;
32292;SDS011;43233;48.608;8.838;2022-07-19T03:39:52;10.93;;;3.40;;
32292;SDS011;43233;48.608;8.838;2022-07-19T03:42:17;4.00;;;3.17;;
32292;SDS011;43233;48.608;8.838;2022-07-19T03:44:43;5.00;;;3.10;;
32292;SDS011;43233;48.608;8.838;2022-07-19T03:47:08;3.77;;;3.47;;
32292;SDS011;43233;48.608;8.838;2022-07-19T03:49:34;13.93;;;4.00;;
32292;SDS011;43233;48.608;8.838;2022-07-19T03:52:00;3.90;;;3.50;;
32292;SDS011;43233;48.608;8.838;2022-07-19T03:54:25;6.27;;;3.03;;
32292;SDS011;43233;48.608;8.838;2022-07-19T03:56:51;4.03;;;2.90;;
32292;SDS011;43233;48.608;8.838;2022-07-19T03:59:17;2.97;;;2.73;;
32292;SDS011;43233;48.608;8.838;2022-07-19T04:01:42;4.33;;;3.37;;
32292;SDS011;43233;48.608;8.838;2022-07-19T04:04:08;4.07;;;3.73;;
32292;SDS011;43233;48.608;8.838;2022-07-19T04:06:46;4.03;;;3.30;;
32292;SDS011;43233;48.608;8.838;2022-07-19T04:09:11;7.07;;;3.60;;
32292;SDS011;43233;48.608;8.838;2022-07-19T04:11:37;5.43;;;3.53;;
32292;SDS011;43233;48.608;8.838;2022-07-19T04:14:03;3.93;;;3.00;;
32292;SDS011;43233;48.608;8.838;2022-07-19T04:16:28;3.43;;;2.90;;
32292;SDS011;43233;48.608;8.838;2022-07-19T04:18:54;9.93;;;3.50;;
32292;SDS011;43233;48.608;8.838;2022-07-19T04:21:20;4.37;;;3.97;;
32292;SDS011;43233;48.608;8.838;2022-07-19T04:23:45;6.30;;;3.80;;
32292;SDS011;43233;48.608;8.838;2022-07-19T04:26:11;4.77;;;3.33;;
32292;SDS011;43233;48.608;8.838;2022-07-19T04:28:37;5.80;;;3.37;;
32292;SDS011;43233;48.608;8.838;2022-07-19T04:31:02;3.90;;;3.50;;
32292;SDS011;43233;48.608;8.838;2022-07-19T04:33:28;4.30;;;3.77;;
32292;SDS011;43233;48.608;8.838;2022-07-19T04:35:54;3.63;;;3.33;;
32292;SDS011;43233;48.608;8.838;2022-07-19T04:38:20;3.77;;;3.37;;
32292;SDS011;43233;48.608;8.838;2022-07-19T04:40:46;8.43;;;3.70;;
32292;SDS011;43233;48.608;8.838;2022-07-19T04:43:12;4.00;;;3.60;;
32292;SDS011;43233;48.608;8.838;2022-07-19T04:45:37;4.97;;;3.77;;
32292;SDS011;43233;48.608;8.838;2022-07-19T04:48:05;5.00;;;3.93;;
32292;SDS011;43233;48.608;8.838;2022-07-19T04:50:31;6.13;;;3.47;;
32292;SDS011;43233;48.608;8.838;2022-07-19T04:52:56;4.10;;;3.60;;
32292;SDS011;43233;48.608;8.838;2022-07-19T04:55:22;4.53;;;3.00;;
32292;SDS011;43233;48.608;8.838;2022-07-19T04:57:48;5.20;;;3.77;;
32292;SDS011;43233;48.608;8.838;2022-07-19T05:00:13;9.13;;;4.10;;
32292;SDS011;43233;48.608;8.838;2022-07-19T05:02:39;8.23;;;4.10;;
32292;SDS011;43233;48.608;8.838;2022-07-19T05:05:05;4.17;;;3.33;;
32292;SDS011;43233;48.608;8.838;2022-07-19T05:07:31;6.40;;;3.67;;
32292;SDS011;43233;48.608;8.838;2022-07-19T05:09:57;6.50;;;4.00;;
32292;SDS011;43233;48.608;8.838;2022-07-19T05:12:22;4.00;;;3.70;;
32292;SDS011;43233;48.608;8.838;2022-07-19T05:14:48;4.10;;;3.63;;
32292;SDS011;43233;48.608;8.838;2022-07-19T05:17:14;5.70;;;3.37;;
32292;SDS011;43233;48.608;8.838;2022-07-19T05:19:40;4.97;;;3.40;;
32292;SDS011;43233;48.608;8.838;2022-07-19T05:22:06;4.20;;;3.53;;
32292;SDS011;43233;48.608;8.838;2022-07-19T05:24:32;5.03;;;3.97;;
32292;SDS011;43233;48.608;8.838;2022-07-19T05:27:00;7.73;;;3.40;;
32292;SDS011;43233;48.608;8.838;2022-07-19T05:29:25;4.77;;;4.10;;
32292;SDS011;43233;48.608;8.838;2022-07-19T05:31:51;4.13;;;3.30;;
32292;SDS011;43233;48.608;8.838;2022-07-19T05:34:17;4.37;;;3.97;;
32292;SDS011;43233;48.608;8.838;2022-07-19T05:36:42;5.43;;;4.20;;
32292;SDS011;43233;48.608;8.838;2022-07-19T05:39:08;3.57;;;3.30;;
32292;SDS011;43233;48.608;8.838;2022-07-19T05:41:33;8.33;;;4.10;;
32292;SDS011;43233;48.608;8.838;2022-07-19T05:43:59;6.20;;;3.80;;
32292;SDS011;43233;48.608;8.838;2022-07-19T05:46:25;5.43;;;4.57;;
32292;SDS011;43233;48.608;8.838;2022-07-19T05:48:51;4.60;;;2.90;;
32292;SDS011;43233;48.608;8.838;2022-07-19T05:51:16;4.97;;;3.57;;
32292;SDS011;43233;48.608;8.838;2022-07-19T05:53:42;4.40;;;4.00;;
32292;SDS011;43233;48.608;8.838;2022-07-19T05:56:08;4.90;;;4.37;;
32292;SDS011;43233;48.608;8.838;2022-07-19T05:58:34;16.33;;;3.70;;
32292;SDS011;43233;48.608;8.838;2022-07-19T06:01:00;3.30;;;3.00;;
32292;SDS011;43233;48.608;8.838;2022-07-19T06:03:49;7.47;;;3.67;;
32292;SDS011;43233;48.608;8.838;2022-07-19T06:06:17;5.53;;;2.90;;
32292;SDS011;43233;48.608;8.838;2022-07-19T06:08:43;10.70;;;3.00;;
32292;SDS011;43233;48.608;8.838;2022-07-19T06:11:09;2.37;;;2.17;;
32292;SDS011;43233;48.608;8.838;2022-07-19T06:13:36;2.40;;;2.20;;
32292;SDS011;43233;48.608;8.838;2022-07-19T06:16:02;2.50;;;2.30;;
32292;SDS011;43233;48.608;8.838;2022-07-19T06:18:28;3.30;;;2.27;;
32292;SDS011;43233;48.608;8.838;2022-07-19T06:20:59;3.10;;;2.80;;
32292;SDS011;43233;48.608;8.838;2022-07-19T06:23:28;2.80;;;2.60;;
32292;SDS011;43233;48.608;8.838;2022-07-19T06:25:54;2.63;;;2.43;;
32292;SDS011;43233;48.608;8.838;2022-07-19T06:28:20;5.10;;;2.67;;
32292;SDS011;43233;48.608;8.838;2022-07-19T06:30:45;2.20;;;2.10;;
32292;SDS011;43233;48.608;8.838;2022-07-19T06:33:11;3.17;;;2.97;;
32292;SDS011;43233;48.608;8.838;2022-07-19T06:35:36;2.60;;;2.40;;
32292;SDS011;43233;48.608;8.838;2022-07-19T06:38:03;6.33;;;2.23;;
32292;SDS011;43233;48.608;8.838;2022-07-19T06:40:29;3.23;;;2.20;;
32292;SDS011;43233;48.608;8.838;2022-07-19T06:42:55;2.20;;;2.10;;
32292;SDS011;43233;48.608;8.838;2022-07-19T06:45:20;2.63;;;2.43;;
32292;SDS011;43233;48.608;8.838;2022-07-19T06:47:46;2.50;;;2.30;;
32292;SDS011;43233;48.608;8.838;2022-07-19T06:50:12;4.30;;;2.10;;
32292;SDS011;43233;48.608;8.838;2022-07-19T06:52:37;6.80;;;2.20;;
32292;SDS011;43233;48.608;8.838;2022-07-19T06:55:03;3.30;;;2.43;;
32292;SDS011;43233;48.608;8.838;2022-07-19T06:57:29;2.27;;;2.07;;
32292;SDS011;43233;48.608;8.838;2022-07-19T06:59:55;1.90;;;1.80;;
32292;SDS011;43233;48.608;8.838;2022-07-19T07:02:20;2.07;;;1.97;;
32292;SDS011;43233;48.608;8.838;2022-07-19T07:04:46;3.47;;;2.50;;
32292;SDS011;43233;48.608;8.838;2022-07-19T07:07:12;2.00;;;1.90;;
32292;SDS011;43233;48.608;8.838;2022-07-19T07:09:38;2.37;;;2.17;;
32292;SDS011;43233;48.608;8.838;2022-07-19T07:12:04;2.33;;;2.10;;
32292;SDS011;43233;48.608;8.838;2022-07-19T07:14:29;3.10;;;2.27;;
32292;SDS011;43233;48.608;8.838;2022-07-19T07:16:55;2.20;;;2.03;;
32292;SDS011;43233;48.608;8.838;2022-07-19T07:19:21;2.30;;;2.07;;
32292;SDS011;43233;48.608;8.838;2022-07-19T07:21:46;1.70;;;1.60;;
32292;SDS011;43233;48.608;8.838;2022-07-19T07:24:13;4.13;;;2.50;;
32292;SDS011;43233;48.608;8.838;2022-07-19T07:26:39;3.73;;;2.17;;
32292;SDS011;43233;48.608;8.838;2022-07-19T07:29:04;5.00;;;2.30;;
32292;SDS011;43233;48.608;8.838;2022-07-19T07:31:30;2.20;;;2.10;;
32292;SDS011;43233;48.608;8.838;2022-07-19T07:33:56;3.63;;;1.90;;
32292;SDS011;43233;48.608;8.838;2022-07-19T07:36:21;6.30;;;2.17;;
32292;SDS011;43233;48.608;8.838;2022-07-19T07:38:47;5.77;;;2.30;;
32292;SDS011;43233;48.608;8.838;2022-07-19T07:41:12;3.30;;;2.03;;
32292;SDS011;43233;48.608;8.838;2022-07-19T07:43:38;2.43;;;1.93;;
32292;SDS011;43233;48.608;8.838;2022-07-19T07:46:04;2.63;;;2.10;;
32292;SDS011;43233;48.608;8.838;2022-07-19T07:48:30;4.23;;;2.43;;
32292;SDS011;43233;48.608;8.838;2022-07-19T07:50:55;2.80;;;2.47;;
32292;SDS011;43233;48.608;8.838;2022-07-19T07:53:21;2.90;;;2.27;;
32292;SDS011;43233;48.608;8.838;2022-07-19T07:55:46;3.70;;;2.03;;
32292;SDS011;43233;48.608;8.838;2022-07-19T07:58:12;4.43;;;2.37;;
32292;SDS011;43233;48.608;8.838;2022-07-19T08:00:39;2.30;;;2.10;;
32292;SDS011;43233;48.608;8.838;2022-07-19T08:03:05;4.53;;;2.13;;
32292;SDS011;43233;48.608;8.838;2022-07-19T08:05:31;2.10;;;2.00;;
32292;SDS011;43233;48.608;8.838;2022-07-19T08:07:57;1.90;;;1.60;;
32292;SDS011;43233;48.608;8.838;2022-07-19T08:10:25;2.40;;;2.20;;
32292;SDS011;43233;48.608;8.838;2022-07-19T08:12:52;3.73;;;1.77;;
32292;SDS011;43233;48.608;8.838;2022-07-19T08:15:18;2.30;;;2.20;;
32292;SDS011;43233;48.608;8.838;2022-07-19T08:17:44;5.23;;;2.23;;
32292;SDS011;43233;48.608;8.838;2022-07-19T08:20:10;1.77;;;1.60;;
32292;SDS011;43233;48.608;8.838;2022-07-19T08:22:36;10.97;;;2.77;;
32292;SDS011;43233;48.608;8.838;2022-07-19T08:25:02;2.37;;;2.10;;
32292;SDS011;43233;48.608;8.838;2022-07-19T08:27:29;13.10;;;2.43;;
32292;SDS011;43233;48.608;8.838;2022-07-19T08:29:54;2.97;;;2.30;;
32292;SDS011;43233;48.608;8.838;2022-07-19T08:32:20;2.00;;;1.70;;
32292;SDS011;43233;48.608;8.838;2022-07-19T08:34:46;2.23;;;2.00;;
32292;SDS011;43233;48.608;8.838;2022-07-19T08:37:11;1.97;;;1.87;;
32292;SDS011;43233;48.608;8.838;2022-07-19T08:39:37;11.50;;;2.60;;
32292;SDS011;43233;48.608;8.838;2022-07-19T08:42:03;3.10;;;1.90;;
32292;SDS011;43233;48.608;8.838;2022-07-19T08:44:29;2.50;;;1.93;;
32292;SDS011;43233;48.608;8.838;2022-07-19T08:46:55;3.33;;;2.10;;
32292;SDS011;43233;48.608;8.838;2022-07-19T08:49:21;3.00;;;1.87;;
32292;SDS011;43233;48.608;8.838;2022-07-19T08:51:47;4.77;;;2.23;;
32292;SDS011;43233;48.608;8.838;2022-07-19T08:54:13;2.30;;;2.10;;
32292;SDS011;43233;48.608;8.838;2022-07-19T08:56:40;4.63;;;2.50;;
32292;SDS011;43233;48.608;8.838;2022-07-19T08:59:24;4.27;;;2.00;;
32292;SDS011;43233;48.608;8.838;2022-07-19T09:01:50;2.30;;;2.10;;
32292;SDS011;43233;48.608;8.838;2022-07-19T09:04:17;3.57;;;2.30;;
32292;SDS011;43233;48.608;8.838;2022-07-19T09:06:53;3.40;;;2.20;;
32292;SDS011;43233;48.608;8.838;2022-07-19T09:09:27;4.40;;;2.70;;
32292;SDS011;43233;48.608;8.838;2022-07-19T09:11:54;4.93;;;2.00;;
32292;SDS011;43233;48.608;8.838;2022-07-19T09:14:25;2.50;;;2.23;;
32292;SDS011;43233;48.608;8.838;2022-07-19T09:17:03;7.13;;;2.70;;
32292;SDS011;43233;48.608;8.838;2022-07-19T09:19:35;3.47;;;2.30;;
32292;SDS011;43233;48.608;8.838;2022-07-19T09:22:04;2.10;;;1.80;;
32292;SDS011;43233;48.608;8.838;2022-07-19T09:24:30;3.10;;;2.20;;
32292;SDS011;43233;48.608;8.838;2022-07-19T09:27:07;4.20;;;2.17;;
32292;SDS011;43233;48.608;8.838;2022-07-19T09:29:34;2.13;;;2.03;;
32292;SDS011;43233;48.608;8.838;2022-07-19T09:32:14;4.03;;;2.40;;
32292;SDS011;43233;48.608;8.838;2022-07-19T09:34:42;4.27;;;2.70;;
32292;SDS011;43233;48.608;8.838;2022-07-19T09:37:15;3.07;;;2.10;;
32292;SDS011;43233;48.608;8.838;2022-07-19T09:39:43;2.10;;;2.00;;
32292;SDS011;43233;48.608;8.838;2022-07-19T09:42:11;4.60;;;2.30;;
32292;SDS011;43233;48.608;8.838;2022-07-19T09:44:38;2.07;;;1.97;;
32292;SDS011;43233;48.608;8.838;2022-07-19T09:47:03;2.10;;;1.80;;
32292;SDS011;43233;48.608;8.838;2022-07-19T09:49:29;4.43;;;2.03;;
32292;SDS011;43233;48.608;8.838;2022-07-19T09:51:58;2.47;;;2.27;;
32292;SDS011;43233;48.608;8.838;2022-07-19T09:54:26;2.97;;;2.47;;
32292;SDS011;43233;48.608;8.838;2022-07-19T09:56:54;2.90;;;2.17;;
32292;SDS011;43233;48.608;8.838;2022-07-19T09:59:22;2.17;;;2.07;;
32292;SDS011;43233;48.608;8.838;2022-07-19T10:01:49;1.93;;;1.83;;
32292;SDS011;43233;48.608;8.838;2022-07-19T10:04:19;2.40;;;2.30;;
32292;SDS011;43233;48.608;8.838;2022-07-19T10:06:48;3.20;;;2.37;;
32292;SDS011;43233;48.608;8.838;2022-07-19T10:09:16;4.00;;;2.50;;
32292;SDS011;43233;48.608;8.838;2022-07-19T10:11:44;3.17;;;2.73;;
32292;SDS011;43233;48.608;8.838;2022-07-19T10:14:10;2.30;;;2.10;;
32292;SDS011;43233;48.608;8.838;2022-07-19T10:22:06;2.40;;;2.20;;
32292;SDS011;43233;48.608;8.838;2022-07-19T10:27:14;4.40;;;2.80;;
32292;SDS011;43233;48.608;8.838;2022-07-19T10:29:42;3.57;;;2.50;;
32292;SDS011;43233;48.608;8.838;2022-07-19T10:32:12;6.50;;;2.27;;
32292;SDS011;43233;48.608;8.838;2022-07-19T10:34:39;3.23;;;2.30;;
32292;SDS011;43233;48.608;8.838;2022-07-19T10:37:05;2.80;;;2.30;;
32292;SDS011;43233;48.608;8.838;2022-07-19T10:39:32;3.07;;;2.33;;
32292;SDS011;43233;48.608;8.838;2022-07-19T10:42:14;2.30;;;1.87;;
32292;SDS011;43233;48.608;8.838;2022-07-19T10:45:27;3.20;;;2.63;;
32292;SDS011;43233;48.608;8.838;2022-07-19T10:50:06;2.60;;;2.40;;
32292;SDS011;43233;48.608;8.838;2022-07-19T10:52:37;7.57;;;2.60;;
32292;SDS011;43233;48.608;8.838;2022-07-19T10:57:45;3.07;;;2.20;;
32292;SDS011;43233;48.608;8.838;2022-07-19T11:00:17;3.23;;;2.20;;
32292;SDS011;43233;48.608;8.838;2022-07-19T11:02:44;3.87;;;2.33;;
32292;SDS011;43233;48.608;8.838;2022-07-19T11:05:26;5.50;;;2.63;;
32292;SDS011;43233;48.608;8.838;2022-07-19T11:07:55;6.50;;;2.50;;
32292;SDS011;43233;48.608;8.838;2022-07-19T11:10:25;4.63;;;2.40;;
32292;SDS011;43233;48.608;8.838;2022-07-19T11:12:53;3.27;;;2.50;;
32292;SDS011;43233;48.608;8.838;2022-07-19T11:15:23;2.97;;;2.43;;
32292;SDS011;43233;48.608;8.838;2022-07-19T11:17:55;6.37;;;2.23;;
32292;SDS011;43233;48.608;8.838;2022-07-19T11:20:23;3.63;;;2.27;;
32292;SDS011;43233;48.608;8.838;2022-07-19T11:22:50;2.77;;;2.37;;
32292;SDS011;43233;48.608;8.838;2022-07-19T11:25:16;2.30;;;2.10;;
32292;SDS011;43233;48.608;8.838;2022-07-19T11:27:48;2.47;;;2.27;;
32292;SDS011;43233;48.608;8.838;2022-07-19T11:30:14;3.00;;;2.50;;
32292;SDS011;43233;48.608;8.838;2022-07-19T11:32:41;4.30;;;2.10;;
32292;SDS011;43233;48.608;8.838;2022-07-19T11:35:08;2.33;;;2.13;;
32292;SDS011;43233;48.608;8.838;2022-07-19T11:37:37;2.40;;;2.17;;
32292;SDS011;43233;48.608;8.838;2022-07-19T11:40:04;7.57;;;3.93;;
32292;SDS011;43233;48.608;8.838;2022-07-19T11:45:09;2.33;;;2.10;;
32292;SDS011;43233;48.608;8.838;2022-07-19T11:47:49;3.83;;;2.60;;
32292;SDS011;43233;48.608;8.838;2022-07-19T11:50:19;5.90;;;2.53;;
32292;SDS011;43233;48.608;8.838;2022-07-19T11:52:50;3.63;;;2.93;;
32292;SDS011;43233;48.608;8.838;2022-07-19T11:55:18;4.27;;;2.40;;
32292;SDS011;43233;48.608;8.838;2022-07-19T11:57:46;3.43;;;2.20;;
32292;SDS011;43233;48.608;8.838;2022-07-19T12:00:13;5.33;;;2.70;;
32292;SDS011;43233;48.608;8.838;2022-07-19T12:02:52;6.93;;;2.67;;
32292;SDS011;43233;48.608;8.838;2022-07-19T12:05:29;3.03;;;2.77;;
32292;SDS011;43233;48.608;8.838;2022-07-19T12:08:08;4.47;;;2.50;;
32292;SDS011;43233;48.608;8.838;2022-07-19T12:13:11;6.73;;;2.80;;
32292;SDS011;43233;48.608;8.838;2022-07-19T12:15:42;3.97;;;2.40;;
32292;SDS011;43233;48.608;8.838;2022-07-19T12:18:17;2.73;;;2.20;;
32292;SDS011;43233;48.608;8.838;2022-07-19T12:27:01;2.83;;;2.63;;
32292;SDS011;43233;48.608;8.838;2022-07-19T12:30:02;3.20;;;2.43;;
32292;SDS011;43233;48.608;8.838;2022-07-19T12:32:39;4.40;;;2.23;;
32292;SDS011;43233;48.608;8.838;2022-07-19T12:35:11;3.17;;;2.80;;
32292;SDS011;43233;48.608;8.838;2022-07-19T12:37:39;6.10;;;2.57;;
32292;SDS011;43233;48.608;8.838;2022-07-19T12:40:11;4.37;;;2.63;;
32292;SDS011;43233;48.608;8.838;2022-07-19T12:42:39;4.50;;;2.60;;
32292;SDS011;43233;48.608;8.838;2022-07-19T12:45:15;3.67;;;2.97;;
32292;SDS011;43233;48.608;8.838;2022-07-19T12:47:43;6.47;;;3.03;;
32292;SDS011;43233;48.608;8.838;2022-07-19T12:50:17;4.20;;;3.03;;
32292;SDS011;43233;48.608;8.838;2022-07-19T12:52:56;3.50;;;2.40;;
32292;SDS011;43233;48.608;8.838;2022-07-19T12:55:25;6.40;;;2.60;;
32292;SDS011;43233;48.608;8.838;2022-07-19T12:57:52;4.37;;;2.80;;
32292;SDS011;43233;48.608;8.838;2022-07-19T13:00:20;4.07;;;2.80;;
32292;SDS011;43233;48.608;8.838;2022-07-19T13:02:48;3.70;;;2.63;;
32292;SDS011;43233;48.608;8.838;2022-07-19T13:05:15;2.90;;;2.63;;
32292;SDS011;43233;48.608;8.838;2022-07-19T13:07:40;6.10;;;3.23;;
32292;SDS011;43233;48.608;8.838;2022-07-19T13:10:07;7.33;;;2.80;;
32292;SDS011;43233;48.608;8.838;2022-07-19T13:12:33;5.37;;;2.23;;
32292;SDS011;43233;48.608;8.838;2022-07-19T13:14:59;5.43;;;3.17;;
32292;SDS011;43233;48.608;8.838;2022-07-19T13:17:25;7.00;;;3.40;;
32292;SDS011;43233;48.608;8.838;2022-07-19T13:19:50;4.13;;;3.33;;
32292;SDS011;43233;48.608;8.838;2022-07-19T13:22:16;5.80;;;2.73;;
32292;SDS011;43233;48.608;8.838;2022-07-19T13:24:42;4.80;;;2.93;;
32292;SDS011;43233;48.608;8.838;2022-07-19T13:27:07;4.03;;;2.60;;
32292;SDS011;43233;48.608;8.838;2022-07-19T13:29:33;4.00;;;2.60;;
32292;SDS011;43233;48.608;8.838;2022-07-19T13:32:00;12.10;;;3.07;;
32292;SDS011;43233;48.608;8.838;2022-07-19T13:34:25;3.60;;;2.50;;
32292;SDS011;43233;48.608;8.838;2022-07-19T13:36:52;11.33;;;2.50;;
32292;SDS011;43233;48.608;8.838;2022-07-19T13:39:17;3.07;;;2.57;;
32292;SDS011;43233;48.608;8.838;2022-07-19T13:41:44;3.97;;;2.77;;
32292;SDS011;43233;48.608;8.838;2022-07-19T13:44:09;2.90;;;2.27;;
32292;SDS011;43233;48.608;8.838;2022-07-19T13:46:35;4.97;;;3.00;;
32292;SDS011;43233;48.608;8.838;2022-07-19T13:49:01;3.10;;;2.80;;
32292;SDS011;43233;48.608;8.838;2022-07-19T13:51:27;2.63;;;2.30;;
32292;SDS011;43233;48.608;8.838;2022-07-19T13:53:53;6.13;;;2.40;;
32292;SDS011;43233;48.608;8.838;2022-07-19T13:56:19;4.93;;;3.03;;
32292;SDS011;43233;48.608;8.838;2022-07-19T13:58:48;2.40;;;2.30;;
32292;SDS011;43233;48.608;8.838;2022-07-19T14:01:14;2.97;;;2.17;;
32292;SDS011;43233;48.608;8.838;2022-07-19T14:03:40;7.20;;;2.83;;
32292;SDS011;43233;48.608;8.838;2022-07-19T14:06:06;3.37;;;2.50;;
32292;SDS011;43233;48.608;8.838;2022-07-19T14:08:33;4.10;;;2.57;;
32292;SDS011;43233;48.608;8.838;2022-07-19T14:10:59;4.07;;;2.40;;
32292;SDS011;43233;48.608;8.838;2022-07-19T14:13:25;3.50;;;2.80;;
32292;SDS011;43233;48.608;8.838;2022-07-19T14:15:52;5.87;;;2.37;;
32292;SDS011;43233;48.608;8.838;2022-07-19T14:18:17;5.60;;;2.60;;
32292;SDS011;43233;48.608;8.838;2022-07-19T14:20:43;3.70;;;2.40;;
32292;SDS011;43233;48.608;8.838;2022-07-19T14:23:09;8.70;;;3.40;;
32292;SDS011;43233;48.608;8.838;2022-07-19T14:25:36;5.00;;;2.90;;
32292;SDS011;43233;48.608;8.838;2022-07-19T14:28:03;2.40;;;2.20;;
32292;SDS011;43233;48.608;8.838;2022-07-19T14:30:29;3.80;;;2.50;;
32292;SDS011;43233;48.608;8.838;2022-07-19T14:32:54;3.53;;;2.57;;
32292;SDS011;43233;48.608;8.838;2022-07-19T14:35:20;2.50;;;2.30;;
32292;SDS011;43233;48.608;8.838;2022-07-19T14:37:46;2.97;;;2.60;;
32292;SDS011;43233;48.608;8.838;2022-07-19T14:40:12;3.43;;;2.30;;
32292;SDS011;43233;48.608;8.838;2022-07-19T14:42:38;9.67;;;2.37;;
32292;SDS011;43233;48.608;8.838;2022-07-19T14:45:04;4.73;;;2.07;;
32292;SDS011;43233;48.608;8.838;2022-07-19T14:47:31;8.50;;;2.47;;
32292;SDS011;43233;48.608;8.838;2022-07-19T14:49:57;6.47;;;3.03;;
32292;SDS011;43233;48.608;8.838;2022-07-19T14:52:23;5.47;;;2.63;;
32292;SDS011;43233;48.608;8.838;2022-07-19T14:54:49;4.00;;;2.40;;
32292;SDS011;43233;48.608;8.838;2022-07-19T14:57:15;2.63;;;2.40;;
32292;SDS011;43233;48.608;8.838;2022-07-19T14:59:40;3.03;;;2.70;;
32292;SDS011;43233;48.608;8.838;2022-07-19T15:02:06;2.67;;;2.47;;
32292;SDS011;43233;48.608;8.838;2022-07-19T15:04:33;4.73;;;2.60;;
32292;SDS011;43233;48.608;8.838;2022-07-19T15:06:59;6.70;;;2.40;;
32292;SDS011;43233;48.608;8.838;2022-07-19T15:09:25;3.40;;;2.60;;
32292;SDS011;43233;48.608;8.838;2022-07-19T15:11:52;5.50;;;2.80;;